Time;durP1;ratioP1;P1;durP2;ratioP2;P2;SDS_P1;SDS_P2;PMS_P1;PMS_P2;Temp;Humidity;BMP_temperature;BMP_pressure;BME280_temperature;BME280_humidity;BME280_pressure;Samples;Min_cycle;Max_cycle;Signal;HPM_P1;HPM_P2
2021/09/15 00:01:59;;;;;;;1999.90;999.90;;;;;;;16.52;45.56;100911.81;4980196;28;98139;-76
2021/09/15 00:04:27;;;;;;;1999.90;999.90;;;;;;;16.61;45.78;100908.22;4972753;28;99000;-76
2021/09/15 00:06:55;;;;;;;1999.90;999.90;;;;;;;16.59;45.59;100910.91;4977812;28;96782;-76
2021/09/15 00:09:25;;;;;;;1999.90;999.90;;;;;;;16.59;45.79;100913.59;4980856;28;97049;-75
2021/09/15 00:11:54;;;;;;;1999.90;999.90;;;;;;;16.58;45.73;100910.91;4997586;28;97529;-75
2021/09/15 00:14:22;;;;;;;1999.90;999.90;;;;;;;16.57;45.80;100911.78;4978457;28;98780;-75
2021/09/15 00:16:50;;;;;;;1999.90;999.90;;;;;;;16.56;45.83;100915.38;4954923;28;96937;-75
2021/09/15 00:19:18;;;;;;;1999.90;999.90;;;;;;;16.55;46.14;100909.13;4981969;28;96859;-75
2021/09/15 00:21:46;;;;;;;1999.90;999.90;;;;;;;16.54;45.86;100907.31;4990092;28;97939;-76
2021/09/15 00:24:14;;;;;;;1999.90;999.90;;;;;;;16.56;45.76;100904.66;4982919;28;99319;-76
2021/09/15 00:26:43;;;;;;;1999.90;999.90;;;;;;;16.56;46.11;100901.97;4981514;28;96974;-75
2021/09/15 00:29:11;;;;;;;1999.90;999.90;;;;;;;16.55;45.95;100894.78;4962367;28;96965;-76
2021/09/15 00:31:39;;;;;;;1999.90;999.90;;;;;;;16.57;45.80;100898.34;4958923;28;99412;-76
2021/09/15 00:34:07;;;;;;;1999.90;999.90;;;;;;;16.55;45.92;100889.41;4971315;28;97376;-76
2021/09/15 00:36:35;;;;;;;1999.90;999.90;;;;;;;16.54;45.78;100895.69;4979664;28;97323;-74
2021/09/15 00:39:03;;;;;;;1999.90;999.90;;;;;;;16.55;46.22;100889.41;4978965;28;97580;-75
2021/09/15 00:41:31;;;;;;;1999.90;999.90;;;;;;;16.54;46.11;100887.63;4993291;28;97996;-76
2021/09/15 00:44:05;;;;;;;1999.90;999.90;;;;;;;16.54;45.88;100896.56;4955274;28;99874;-75
2021/09/15 00:46:33;;;;;;;1999.90;999.90;;;;;;;16.53;46.02;100896.56;4978238;28;97379;-76
2021/09/15 00:49:01;;;;;;;1999.90;999.90;;;;;;;16.52;46.05;100890.31;4980070;28;97236;-75
2021/09/15 00:51:29;;;;;;;1999.90;999.90;;;;;;;16.52;45.96;100892.09;4981831;28;100230;-75
2021/09/15 00:53:57;;;;;;;1999.90;999.90;;;;;;;16.50;46.10;100897.50;4958459;28;99495;-75
2021/09/15 00:56:27;;;;;;;1999.90;999.90;;;;;;;16.49;46.29;100892.13;4971151;28;96945;-76
2021/09/15 00:58:55;;;;;;;1999.90;999.90;;;;;;;16.48;46.37;100887.63;4976969;28;97807;-75
2021/09/15 01:01:25;;;;;;;1999.90;999.90;;;;;;;16.48;45.95;100895.69;4978327;28;99724;-74
2021/09/15 01:07:35;;;;;;;1999.90;999.90;;;;;;;16.43;46.13;100884.06;4946784;28;97424;-74
2021/09/15 01:10:05;;;;;;;1999.90;999.90;;;;;;;16.42;46.16;100887.63;4974268;28;96846;-75
2021/09/15 01:12:39;;;;;;;1999.90;999.90;;;;;;;16.41;46.47;100884.06;4970304;28;99093;-75
2021/09/15 01:15:30;;;;;;;1999.90;999.90;;;;;;;16.41;46.70;100880.47;4947507;28;99642;-75
2021/09/15 01:18:25;;;;;;;1999.90;999.90;;;;;;;16.41;46.74;100880.47;4957823;28;96998;-75
2021/09/15 01:21:27;;;;;;;1999.90;999.90;;;;;;;16.40;46.63;100878.66;4987038;28;97166;-74
2021/09/15 01:24:12;;;;;;;1999.90;999.90;;;;;;;16.40;46.61;100886.72;4976401;28;99270;-74
2021/09/15 01:27:15;;;;;;;1999.90;999.90;;;;;;;16.38;46.58;100881.38;4976900;28;99469;-75
2021/09/15 01:30:07;;;;;;;1999.90;999.90;;;;;;;16.36;46.49;100883.16;4978506;28;96831;-74
2021/09/15 01:32:35;;;;;;;1999.90;999.90;;;;;;;16.35;46.52;100881.38;4971225;28;96842;-75
2021/09/15 01:35:05;;;;;;;1999.90;999.90;;;;;;;16.36;46.64;100882.28;4970562;28;100414;-76
2021/09/15 01:37:38;;;;;;;1999.90;999.90;;;;;;;16.36;46.69;100874.22;4987377;28;99111;-75
2021/09/15 01:40:07;;;;;;;1999.90;999.90;;;;;;;16.35;46.60;100870.63;4960939;28;96813;-75
2021/09/15 01:42:37;;;;;;;1999.90;999.90;;;;;;;16.32;46.65;100870.66;4954208;28;97335;-74
2021/09/15 01:45:10;;;;;;;1999.90;999.90;;;;;;;16.31;46.75;100867.94;4960052;28;99069;-76
2021/09/15 01:47:38;;;;;;;1999.90;999.90;;;;;;;16.32;46.98;100864.38;4976374;28;100343;-75
2021/09/15 01:50:07;;;;;;;1999.90;999.90;;;;;;;16.29;46.72;100862.56;4977297;28;96941;-76
2021/09/15 01:52:35;;;;;;;1999.90;999.90;;;;;;;16.29;46.91;100870.63;4991479;28;97702;-76
2021/09/15 01:55:21;;;;;;;1999.90;999.90;;;;;;;16.29;46.80;100869.75;4971264;28;97735;-75
2021/09/15 01:57:53;;;;;;;1999.90;999.90;;;;;;;16.28;47.15;100867.94;4964436;28;99740;-76
2021/09/15 02:00:27;;;;;;;1999.90;999.90;;;;;;;16.27;46.98;100860.81;4977305;28;96813;-75
2021/09/15 02:03:11;;;;;;;1999.90;999.90;;;;;;;16.27;46.75;100860.81;4959323;28;97290;-76
2021/09/15 02:05:54;;;;;;;1999.90;999.90;;;;;;;16.26;47.11;100859.00;4977543;28;97661;-75
2021/09/15 02:08:38;;;;;;;1999.90;999.90;;;;;;;16.27;47.12;100863.50;4957095;28;98979;-75
2021/09/15 02:11:24;;;;;;;1999.90;999.90;;;;;;;16.27;47.13;100863.50;4960621;28;96879;-75
2021/09/15 02:13:52;;;;;;;1999.90;999.90;;;;;;;16.26;46.90;100859.00;4960538;28;96958;-76
2021/09/15 02:16:21;;;;;;;1999.90;999.90;;;;;;;16.28;46.96;100851.84;4956993;28;99289;-75
2021/09/15 02:18:51;;;;;;;1999.90;999.90;;;;;;;16.26;46.99;100851.84;4958153;28;99258;-76
2021/09/15 02:21:33;;;;;;;1999.90;999.90;;;;;;;16.26;47.01;100856.31;4953170;28;97022;-75
2021/09/15 02:24:39;;;;;;;1999.90;999.90;;;;;;;16.26;47.20;100853.63;4976943;28;97152;-76
2021/09/15 02:27:29;;;;;;;1999.90;999.90;;;;;;;16.24;47.19;100853.63;4958306;28;98219;-76
2021/09/15 02:29:57;;;;;;;1999.90;999.90;;;;;;;16.25;47.02;100854.53;4987767;27;100335;-76
2021/09/15 02:32:32;;;;;;;1999.90;999.90;;;;;;;16.25;47.10;100846.50;4982459;28;97000;-76
2021/09/15 02:35:27;;;;;;;1999.90;999.90;;;;;;;16.23;47.10;100841.13;4980210;28;96598;-76
2021/09/15 02:38:09;;;;;;;1999.90;999.90;;;;;;;16.24;47.48;100837.53;4964910;28;99322;-76
2021/09/15 02:40:54;;;;;;;1999.90;999.90;;;;;;;16.23;47.91;100838.44;4999556;28;98180;-76
2021/09/15 02:43:42;;;;;;;1999.90;999.90;;;;;;;16.24;48.08;100837.53;4966916;28;98028;-76
2021/09/15 02:46:31;;;;;;;1999.90;999.90;;;;;;;16.24;48.04;100840.22;4966008;28;97028;-75
2021/09/15 02:49:27;;;;;;;1999.90;999.90;;;;;;;16.26;47.84;100840.22;4957273;28;98037;-77
2021/09/15 02:52:06;;;;;;;1999.90;999.90;;;;;;;16.25;48.02;100849.16;4980465;28;98063;-76
2021/09/15 02:54:45;;;;;;;1999.90;999.90;;;;;;;16.25;47.79;100841.13;4966348;28;96906;-75
2021/09/15 02:57:25;;;;;;;1999.90;999.90;;;;;;;16.24;47.84;100842.00;4964554;28;97292;-75
2021/09/15 03:00:05;;;;;;;1999.90;999.90;;;;;;;16.25;47.62;100830.38;4962962;28;99124;-76
2021/09/15 03:02:46;;;;;;;1999.90;999.90;;;;;;;16.23;47.63;100837.53;4971014;28;99635;-76
2021/09/15 03:05:33;;;;;;;1999.90;999.90;;;;;;;16.23;47.72;100838.44;4966257;28;97033;-76
2021/09/15 03:08:16;;;;;;;1999.90;999.90;;;;;;;16.23;47.68;100840.22;4955672;28;97115;-76
2021/09/15 03:10:44;;;;;;;1999.90;999.90;;;;;;;16.23;47.95;100827.69;4959787;28;99773;-77
2021/09/15 03:13:12;;;;;;;1999.90;999.90;;;;;;;16.22;47.72;100825.88;4984617;28;98862;-77
2021/09/15 03:15:41;;;;;;;1999.90;999.90;;;;;;;16.22;47.87;100816.94;4985218;28;96908;-77
2021/09/15 03:18:09;;;;;;;1999.90;999.90;;;;;;;16.21;47.85;100815.16;4985016;28;96913;-75
2021/09/15 03:20:37;;;;;;;1999.90;999.90;;;;;;;16.19;47.77;100819.63;4961693;28;98670;-78
2021/09/15 03:23:05;;;;;;;1999.90;999.90;;;;;;;16.18;47.80;100821.41;4986626;28;97466;-78
2021/09/15 03:25:33;;;;;;;1999.90;999.90;;;;;;;16.18;47.99;100818.72;4968883;28;97135;-76
2021/09/15 03:28:03;;;;;;;1999.90;999.90;;;;;;;16.18;47.78;100815.19;4966810;28;97006;-77
2021/09/15 03:30:31;;;;;;;1999.90;999.90;;;;;;;16.19;47.79;100806.19;5000321;28;98914;-78
2021/09/15 03:33:01;;;;;;;1999.90;999.90;;;;;;;16.16;47.67;100801.72;4977086;28;100682;-76
2021/09/15 03:35:29;;;;;;;1999.90;999.90;;;;;;;16.16;47.70;100809.78;4982466;28;96939;-77
2021/09/15 03:37:57;;;;;;;1999.90;999.90;;;;;;;16.17;47.77;100805.31;4984408;28;97008;-78
2021/09/15 03:40:25;;;;;;;1999.90;999.90;;;;;;;16.15;47.75;100807.09;4986010;28;98503;-77
2021/09/15 03:42:54;;;;;;;1999.90;999.90;;;;;;;16.14;47.81;100797.28;4966421;28;97906;-78
2021/09/15 03:45:22;;;;;;;1999.90;999.90;;;;;;;16.12;48.03;100789.22;4983620;28;97311;-76
2021/09/15 03:47:50;;;;;;;1999.90;999.90;;;;;;;16.10;48.10;100788.31;4984727;28;96932;-77
2021/09/15 03:50:20;;;;;;;1999.90;999.90;;;;;;;16.10;48.07;100791.00;4962301;28;101046;-76
2021/09/15 03:52:49;;;;;;;1999.90;999.90;;;;;;;16.08;48.17;100780.28;4975741;28;100926;-77
2021/09/15 03:55:17;;;;;;;1999.90;999.90;;;;;;;16.08;47.91;100774.91;4983250;28;97084;-77
2021/09/15 03:57:46;;;;;;;1999.90;999.90;;;;;;;16.08;47.92;100772.22;4966111;28;97161;-77
2021/09/15 04:00:15;;;;;;;1999.90;999.90;;;;;;;16.08;48.10;100779.38;4984149;28;102397;-77
2021/09/15 04:02:49;;;;;;;1999.90;999.90;;;;;;;16.05;48.16;100782.03;4970073;28;99603;-77
2021/09/15 04:05:26;;;;;;;1999.90;999.90;;;;;;;16.02;48.73;100774.91;4978981;28;97422;-77
2021/09/15 04:07:56;;;;;;;1999.90;999.90;;;;;;;16.01;48.61;100769.56;4987385;28;97388;-76
2021/09/15 04:10:25;;;;;;;1999.90;999.90;;;;;;;15.99;48.61;100768.63;4984217;28;99769;-77
2021/09/15 04:12:57;;;;;;;1999.90;999.90;;;;;;;16.02;48.45;100765.97;4987263;28;98974;-76
2021/09/15 04:15:29;;;;;;;1999.90;999.90;;;;;;;15.99;48.39;100764.16;4985160;28;97065;-76
2021/09/15 04:17:57;;;;;;;1999.90;999.90;;;;;;;15.97;48.62;100762.34;4985341;28;97109;-77
2021/09/15 04:20:27;;;;;;;1999.90;999.90;;;;;;;15.97;48.95;100762.34;4968295;28;99566;-77
2021/09/15 04:22:55;;;;;;;1999.90;999.90;;;;;;;15.99;48.53;100765.94;4995467;28;98001;-77
2021/09/15 04:33:42;;;;;;;1999.90;999.90;;;;;;;15.96;48.96;100758.78;4967935;28;99337;-78
2021/09/15 04:36:11;;;;;;;1999.90;999.90;;;;;;;15.95;49.03;100756.09;4971946;28;96968;-76
2021/09/15 04:38:39;;;;;;;1999.90;999.90;;;;;;;15.94;49.25;100749.81;4971555;28;98036;-77
2021/09/15 04:41:12;;;;;;;1999.90;999.90;;;;;;;15.92;48.77;100751.63;4984042;28;98972;-77
2021/09/15 04:43:42;;;;;;;1999.90;999.90;;;;;;;15.91;49.21;100751.63;4999914;28;97829;-77
2021/09/15 04:46:10;;;;;;;1999.90;999.90;;;;;;;15.91;49.39;100759.66;4966105;28;96995;-76
2021/09/15 04:48:38;;;;;;;1999.90;999.90;;;;;;;15.90;49.66;100760.59;4960384;28;96823;-77
2021/09/15 04:51:08;;;;;;;1999.90;999.90;;;;;;;15.88;49.38;100757.00;4977792;28;99270;-77
2021/09/15 04:53:38;;;;;;;1999.90;999.90;;;;;;;15.87;49.83;100761.47;4963022;28;99494;-77
2021/09/15 04:56:06;;;;;;;1999.90;999.90;;;;;;;15.87;49.67;100749.81;4964514;28;97448;-76
2021/09/15 04:58:34;;;;;;;1999.90;999.90;;;;;;;15.86;50.16;100751.66;4988627;28;97444;-77
2021/09/15 05:01:03;;;;;;;1999.90;999.90;;;;;;;15.83;50.26;100745.38;4958796;28;100753;-76
2021/09/15 05:03:32;;;;;;;1999.90;999.90;;;;;;;15.81;50.30;100748.03;4960599;28;99611;-77
2021/09/15 05:06:03;;;;;;;1999.90;999.90;;;;;;;15.80;50.10;100748.94;4987807;28;96955;-77
2021/09/15 05:08:32;;;;;;;1999.90;999.90;;;;;;;15.79;50.24;100751.66;4972397;28;98072;-76
2021/09/15 05:11:03;;;;;;;1999.90;999.90;;;;;;;15.78;50.53;100752.53;4956491;28;97642;-77
2021/09/15 05:13:31;;;;;;;1999.90;999.90;;;;;;;15.77;50.38;100753.44;4988549;28;97747;-76
2021/09/15 05:15:59;;;;;;;1999.90;999.90;;;;;;;15.77;50.47;100757.03;4972567;28;97152;-77
2021/09/15 05:18:27;;;;;;;1999.90;999.90;;;;;;;15.74;50.61;100748.94;4962101;28;96946;-77
2021/09/15 05:20:56;;;;;;;1999.90;999.90;;;;;;;15.72;50.71;100753.41;4976845;28;99080;-78
2021/09/15 05:23:24;;;;;;;1999.90;999.90;;;;;;;15.72;50.81;100752.56;4978506;28;99874;-77
2021/09/15 05:25:59;;;;;;;1999.90;999.90;;;;;;;15.69;50.77;100753.44;4957156;28;97335;-77
2021/09/15 05:28:29;;;;;;;1999.90;999.90;;;;;;;15.70;50.98;100749.84;4963360;28;97381;-77
2021/09/15 05:30:57;;;;;;;1999.90;999.90;;;;;;;15.70;50.59;100751.66;4985972;28;97750;-77
2021/09/15 05:33:26;;;;;;;1999.90;999.90;;;;;;;15.67;50.74;100748.94;4977999;28;97953;-77
2021/09/15 05:35:55;;;;;;;1999.90;999.90;;;;;;;15.67;50.70;100760.59;4979434;28;96912;-77
2021/09/15 05:38:23;;;;;;;1999.90;999.90;;;;;;;15.68;50.78;100756.13;4974066;28;97102;-76
2021/09/15 05:41:10;;;;;;;1999.90;999.90;;;;;;;15.67;51.19;100752.53;4976763;28;98117;-77
2021/09/15 05:43:40;;;;;;;1999.90;999.90;;;;;;;15.69;51.35;100755.22;4989552;28;97685;-77
2021/09/15 05:46:12;;;;;;;1999.90;999.90;;;;;;;15.70;51.26;100749.84;4972453;28;98336;-76
2021/09/15 05:48:40;;;;;;;1999.90;999.90;;;;;;;15.71;51.04;100759.69;4980787;28;97412;-77
2021/09/15 05:51:08;;;;;;;1999.90;999.90;;;;;;;15.73;50.91;100744.50;4988486;28;98599;-77
2021/09/15 05:53:37;;;;;;;1999.90;999.90;;;;;;;15.75;51.28;100744.50;4963054;28;99348;-77
2021/09/15 05:56:06;;;;;;;1999.90;999.90;;;;;;;15.78;51.29;100742.69;4964008;28;96996;-77
2021/09/15 05:58:34;;;;;;;1999.90;999.90;;;;;;;15.77;50.89;100746.28;4986283;28;97081;-76
2021/09/15 06:01:07;;;;;;;1999.90;999.90;;;;;;;15.78;51.22;100737.31;4983402;28;97727;-76
2021/09/15 06:03:36;;;;;;;1999.90;999.90;;;;;;;15.81;51.14;100742.69;4964940;28;98108;-77
2021/09/15 06:06:27;;;;;;;1999.90;999.90;;;;;;;15.81;50.94;100748.03;4986889;28;96797;-76
2021/09/15 06:08:56;;;;;;;1999.90;999.90;;;;;;;15.81;51.27;100753.41;4976799;28;97569;-75
2021/09/15 06:11:24;;;;;;;1999.90;999.90;;;;;;;15.83;50.98;100746.25;4988319;28;99174;-77
2021/09/15 06:13:54;;;;;;;1999.90;999.90;;;;;;;15.84;50.98;100753.44;4993295;28;97456;-78
2021/09/15 06:16:24;;;;;;;1999.90;999.90;;;;;;;15.85;51.13;100754.31;4965071;28;97462;-77
2021/09/15 06:18:52;;;;;;;1999.90;999.90;;;;;;;15.87;51.02;100744.47;4993358;28;97062;-77
2021/09/15 06:21:41;;;;;;;1999.90;999.90;;;;;;;15.88;50.93;100743.59;4967107;28;98083;-76
2021/09/15 06:24:35;;;;;;;1999.90;999.90;;;;;;;15.89;50.95;100746.25;4991906;28;98164;-77
2021/09/15 06:27:03;;;;;;;1999.90;999.90;;;;;;;15.92;50.94;100746.25;4978863;28;96952;-77
2021/09/15 06:29:32;;;;;;;1999.90;999.90;;;;;;;15.94;51.19;100752.50;4957071;28;96940;-77
2021/09/15 06:32:01;;;;;;;1999.90;999.90;;;;;;;15.95;50.99;100748.94;4974509;28;98574;-76
2021/09/15 06:34:30;;;;;;;1999.90;999.90;;;;;;;15.97;50.94;100749.84;4979193;28;98312;-76
2021/09/15 06:36:58;;;;;;;1999.90;999.90;;;;;;;15.96;51.00;100752.50;4979680;28;97285;-76
2021/09/15 06:39:26;;;;;;;1999.90;999.90;;;;;;;15.95;51.11;100746.25;4966772;28;97081;-76
2021/09/15 06:41:53;;;;;;;1999.90;999.90;;;;;;;15.97;50.96;100752.53;4982648;28;99712;-78
2021/09/15 06:44:25;;;;;;;1999.90;999.90;;;;;;;15.97;50.78;100752.53;4981888;28;97661;-77
2021/09/15 06:46:53;;;;;;;1999.90;999.90;;;;;;;15.99;50.95;100744.47;4982551;28;97491;-77
2021/09/15 06:49:22;;;;;;;1999.90;999.90;;;;;;;16.01;51.09;100732.84;4984783;28;96899;-77
2021/09/15 06:51:50;;;;;;;1999.90;999.90;;;;;;;15.99;51.03;100731.94;4981047;28;100743;-75
2021/09/15 06:54:18;;;;;;;1999.90;999.90;;;;;;;16.02;51.06;100731.97;4991734;28;98214;-76
2021/09/15 06:56:47;;;;;;;1999.90;999.90;;;;;;;16.04;50.69;100730.19;4978052;28;96798;-75
2021/09/15 06:59:16;;;;;;;1999.90;999.90;;;;;;;16.08;50.83;100726.59;4972773;28;97452;-76
2021/09/15 07:01:43;;;;;;;1999.90;999.90;;;;;;;16.13;51.10;100723.88;4957940;28;99347;-77
2021/09/15 07:04:12;;;;;;;1999.90;999.90;;;;;;;16.18;50.94;100726.56;4976607;28;99800;-77
2021/09/15 07:06:41;;;;;;;1999.90;999.90;;;;;;;16.21;50.69;100719.41;4987055;28;98100;-76
2021/09/15 07:09:10;;;;;;;1999.90;999.90;;;;;;;16.26;50.82;100717.59;4965789;28;96915;-76
2021/09/15 07:11:38;;;;;;;1999.90;999.90;;;;;;;16.29;50.54;100714.00;4971625;28;100533;-76
2021/09/15 07:14:06;;;;;;;1999.90;999.90;;;;;;;16.31;50.85;100714.88;4972476;28;99479;-76
2021/09/15 07:16:34;;;;;;;1999.90;999.90;;;;;;;16.31;50.54;100715.78;4955453;28;97348;-76
2021/09/15 07:19:02;;;;;;;1999.90;999.90;;;;;;;16.35;50.56;100717.56;4990570;28;97029;-76
2021/09/15 07:21:30;;;;;;;1999.90;999.90;;;;;;;16.38;50.67;100727.41;4974651;28;97313;-77
2021/09/15 07:24:00;;;;;;;1999.90;999.90;;;;;;;16.41;50.54;100725.59;4961190;28;97965;-76
2021/09/15 07:26:29;;;;;;;1999.90;999.90;;;;;;;16.45;50.60;100721.09;4974604;28;97749;-75
2021/09/15 07:28:58;;;;;;;1999.90;999.90;;;;;;;16.50;50.55;100721.97;4969321;28;97369;-75
2021/09/15 07:31:25;;;;;;;1999.90;999.90;;;;;;;16.53;50.33;100721.94;4988493;28;100026;-77
2021/09/15 07:33:54;;;;;;;1999.90;999.90;;;;;;;16.54;50.24;100721.06;4968893;28;99377;-77
2021/09/15 07:36:22;;;;;;;1999.90;999.90;;;;;;;16.57;50.05;100715.66;4967597;28;96957;-75
2021/09/15 07:38:50;;;;;;;1999.90;999.90;;;;;;;16.59;50.31;100720.16;4973054;28;96920;-75
2021/09/15 07:41:25;;;;;;;1999.90;999.90;;;;;;;16.62;50.19;100721.91;4970014;28;98941;-76
2021/09/15 07:43:53;;;;;;;1999.90;999.90;;;;;;;16.67;50.17;100720.97;4976113;28;97936;-77
2021/09/15 07:46:22;;;;;;;1999.90;999.90;;;;;;;16.71;50.03;100716.53;4968201;28;97636;-76
2021/09/15 07:48:50;;;;;;;1999.90;999.90;;;;;;;16.73;49.81;100714.72;4978784;28;97368;-77
2021/09/15 07:51:20;;;;;;;1999.90;999.90;;;;;;;16.79;50.07;100714.69;4955801;28;99040;-76
2021/09/15 07:53:48;;;;;;;1999.90;999.90;;;;;;;16.83;50.04;100714.69;4976824;28;99701;-77
2021/09/15 07:56:17;;;;;;;1999.90;999.90;;;;;;;16.89;50.22;100713.72;4977961;28;97039;-76
2021/09/15 07:58:49;;;;;;;1999.90;999.90;;;;;;;16.89;50.08;100720.00;4978986;28;97412;-77
2021/09/15 08:01:22;;;;;;;1999.90;999.90;;;;;;;16.91;49.69;100722.69;4966683;28;97246;-77
2021/09/15 08:03:54;;;;;;;1999.90;999.90;;;;;;;16.95;49.81;100724.47;4970009;28;97019;-76
2021/09/15 08:06:22;;;;;;;1999.90;999.90;;;;;;;16.98;49.74;100713.72;4971769;28;97239;-77
2021/09/15 08:08:58;;;;;;;1999.90;999.90;;;;;;;17.03;49.69;100706.50;4958767;28;97751;-77
2021/09/15 08:11:27;;;;;;;1999.90;999.90;;;;;;;17.05;49.63;100710.94;4980130;28;98204;-77
2021/09/15 08:13:56;;;;;;;1999.90;999.90;;;;;;;17.09;49.53;100707.34;4982594;28;100350;-77
2021/09/15 08:16:26;;;;;;;1999.90;999.90;;;;;;;17.14;49.47;100710.00;4980654;28;96993;-77
2021/09/15 08:18:56;;;;;;;1999.90;999.90;;;;;;;17.20;49.40;100703.69;4975487;28;99264;-77
2021/09/15 08:21:38;;;;;;;1999.90;999.90;;;;;;;17.25;49.40;100704.53;4977778;28;97957;-78
2021/09/15 08:24:06;;;;;;;1999.90;999.90;;;;;;;17.28;49.52;100708.09;4979909;28;99373;-75
2021/09/15 08:26:34;;;;;;;1999.90;999.90;;;;;;;17.33;49.20;100710.78;4962869;28;96886;-76
2021/09/15 08:29:04;;;;;;;1999.90;999.90;;;;;;;17.37;49.11;100705.34;4978057;28;97073;-77
2021/09/15 08:31:33;;;;;;;1999.90;999.90;;;;;;;17.42;48.99;100706.22;4961773;28;97796;-77
2021/09/15 08:34:01;;;;;;;1999.90;999.90;;;;;;;17.48;49.10;100705.28;4980595;28;100591;-77
2021/09/15 08:36:30;;;;;;;1999.90;999.90;;;;;;;17.51;48.87;100707.97;4987304;28;96852;-77
2021/09/15 08:38:58;;;;;;;1999.90;999.90;;;;;;;17.53;49.00;100704.34;4976027;28;96945;-77
2021/09/15 08:41:27;;;;;;;1999.90;999.90;;;;;;;17.30;49.53;100695.53;4979511;28;97140;-77
2021/09/15 08:43:54;;;;;;;1999.90;999.90;;;;;;;17.50;49.08;100699.00;4979972;28;99551;-77
2021/09/15 08:46:25;;;;;;;1999.90;999.90;;;;;;;17.57;48.90;100689.06;4979122;28;96856;-77
2021/09/15 08:48:58;;;;;;;1999.90;999.90;;;;;;;17.63;48.67;100679.16;4979191;28;96881;-77
2021/09/15 08:51:27;;;;;;;1999.90;999.90;;;;;;;17.68;48.41;100677.31;4980342;28;99413;-76
2021/09/15 08:53:56;;;;;;;1999.90;999.90;;;;;;;17.74;48.29;100679.03;4980594;28;99695;-77
2021/09/15 08:56:26;;;;;;;1999.90;999.90;;;;;;;17.79;48.27;100680.78;4978403;28;96940;-78
2021/09/15 08:58:55;;;;;;;1999.90;999.90;;;;;;;17.86;48.47;100682.50;4979208;28;96893;-78
2021/09/15 09:01:26;;;;;;;1999.90;999.90;;;;;;;17.90;48.27;100683.34;4974642;28;98759;-77
2021/09/15 09:03:56;;;;;;;1999.90;999.90;;;;;;;17.94;48.23;100680.63;4961345;28;99615;-77
2021/09/15 09:06:25;;;;;;;1999.90;999.90;;;;;;;17.99;48.01;100677.88;4968812;28;96862;-77
2021/09/15 09:08:55;;;;;;;1999.90;999.90;;;;;;;18.04;48.07;100676.94;4976621;28;97704;-77
2021/09/15 09:11:27;;;;;;;1999.90;999.90;;;;;;;18.12;47.93;100679.56;4975584;28;97189;-76
2021/09/15 09:13:56;;;;;;;1999.90;999.90;;;;;;;18.19;47.81;100680.38;4979964;28;97747;-76
2021/09/15 09:16:41;;;;;;;1999.90;999.90;;;;;;;18.22;47.80;100680.34;4962823;28;97597;-77
2021/09/15 09:19:11;;;;;;;1999.90;999.90;;;;;;;18.27;47.74;100678.47;4982614;28;97437;-77
2021/09/15 09:21:41;;;;;;;1999.90;999.90;;;;;;;18.30;47.70;100676.63;4971926;28;99066;-76
2021/09/15 09:24:11;;;;;;;1999.90;999.90;;;;;;;18.33;47.99;100667.66;4980351;28;97625;-76
2021/09/15 09:26:58;;;;;;;1999.90;999.90;;;;;;;18.37;47.73;100672.09;4980340;28;96915;-76
2021/09/15 09:29:38;;;;;;;1999.90;999.90;;;;;;;18.42;47.68;100667.53;4968541;28;97230;-76
2021/09/15 09:32:09;;;;;;;1999.90;999.90;;;;;;;18.46;47.87;100667.44;4991320;28;97352;-75
2021/09/15 09:34:42;;;;;;;1999.90;999.90;;;;;;;18.51;47.69;100662.91;4995188;28;98157;-75
2021/09/15 09:37:16;;;;;;;1999.90;999.90;;;;;;;18.55;47.63;100658.38;4965297;28;96851;-75
2021/09/15 09:39:46;;;;;;;1999.90;999.90;;;;;;;18.57;47.25;100651.16;4961352;28;96864;-76
2021/09/15 09:42:32;;;;;;;1999.90;999.90;;;;;;;18.63;47.19;100656.44;4980756;28;101921;-76
2021/09/15 09:45:12;;;;;;;1999.90;999.90;;;;;;;18.65;47.33;100650.13;4979592;28;98856;-76
2021/09/15 09:47:43;;;;;;;1999.90;999.90;;;;;;;18.68;47.16;100649.19;4958878;28;96821;-76
2021/09/15 09:50:13;;;;;;;1999.90;999.90;;;;;;;18.73;47.46;100647.38;4970855;28;96936;-76
2021/09/15 09:52:54;;;;;;;1999.90;999.90;;;;;;;18.78;46.94;100653.56;4973837;28;97897;-76
2021/09/15 09:55:26;;;;;;;1999.90;999.90;;;;;;;18.79;47.30;100658.03;4987456;28;97655;-77
2021/09/15 09:57:55;;;;;;;1999.90;999.90;;;;;;;18.81;47.16;100657.13;4971484;28;97360;-75
2021/09/15 10:00:24;;;;;;;1999.90;999.90;;;;;;;18.82;47.04;100653.50;4961292;28;97327;-76
2021/09/15 10:02:54;;;;;;;1999.90;999.90;;;;;;;18.86;46.95;100654.38;4983361;28;99187;-77
2021/09/15 10:05:23;;;;;;;1999.90;999.90;;;;;;;18.88;46.87;100648.00;4967675;28;99305;-77
2021/09/15 10:07:51;;;;;;;1999.90;999.90;;;;;;;18.93;46.82;100650.66;4982072;28;97913;-76
2021/09/15 10:10:21;;;;;;;1999.90;999.90;;;;;;;18.97;46.79;100655.06;4980677;28;97425;-75
2021/09/15 10:12:51;;;;;;;1999.90;999.90;;;;;;;19.00;46.81;100641.56;4955189;28;99434;-77
2021/09/15 10:15:19;;;;;;;1999.90;999.90;;;;;;;19.02;47.28;100640.59;4964306;28;100732;-76
2021/09/15 10:17:49;;;;;;;1999.90;999.90;;;;;;;19.07;47.38;100643.22;4979344;28;96802;-76
2021/09/15 10:20:22;;;;;;;1999.90;999.90;;;;;;;19.10;47.20;100635.09;4978094;28;96934;-77
2021/09/15 10:22:50;;;;;;;1999.90;999.90;;;;;;;19.12;47.26;100633.25;4978167;28;97388;-76
2021/09/15 10:25:21;;;;;;;1999.90;999.90;;;;;;;19.16;47.47;100632.28;4974091;28;100374;-76
2021/09/15 10:28:00;;;;;;;1999.90;999.90;;;;;;;19.20;47.00;100615.16;4962822;28;97151;-75
2021/09/15 10:30:46;;;;;;;1999.90;999.90;;;;;;;19.24;47.49;100619.59;4977764;28;96786;-77
2021/09/15 10:33:46;;;;;;;1999.90;999.90;;;;;;;19.27;47.46;100619.50;4960867;28;97950;-76
2021/09/15 10:36:40;;;;;;;1999.90;999.90;;;;;;;19.33;47.14;100618.56;4977150;28;99314;-76
2021/09/15 10:39:09;;;;;;;1999.90;999.90;;;;;;;19.34;47.24;100615.81;4977344;28;96836;-77
2021/09/15 10:41:41;;;;;;;1999.90;999.90;;;;;;;19.36;47.24;100619.38;4977335;28;97249;-73
2021/09/15 10:44:10;;;;;;;1999.90;999.90;;;;;;;19.40;46.74;100618.44;4961927;28;99502;-74
2021/09/15 10:46:38;;;;;;;1999.90;999.90;;;;;;;19.45;47.08;100616.53;4962153;28;97742;-76
2021/09/15 10:49:41;;;;;;;1999.90;999.90;;;;;;;19.46;46.58;100612.91;4977168;28;97183;-75
2021/09/15 10:52:30;;;;;;;1999.90;999.90;;;;;;;19.49;46.46;100614.66;4960325;28;97261;-76
2021/09/15 10:55:01;;;;;;;1999.90;999.90;;;;;;;19.51;46.53;100605.63;4973995;28;100249;-77
2021/09/15 10:57:38;;;;;;;1999.90;999.90;;;;;;;19.56;46.58;100602.81;4955475;28;100705;-76
2021/09/15 11:00:10;;;;;;;1999.90;999.90;;;;;;;19.57;46.41;100602.78;4993147;28;97038;-76
2021/09/15 11:02:41;;;;;;;1999.90;999.90;;;;;;;19.61;46.15;100606.34;5001962;28;96562;-75
2021/09/15 11:05:41;;;;;;;1999.90;999.90;;;;;;;19.64;46.56;100604.50;4971879;28;99247;-76
2021/09/15 11:08:20;;;;;;;1999.90;999.90;;;;;;;19.70;46.66;100604.34;4986316;28;98075;-77
2021/09/15 11:10:48;;;;;;;1999.90;999.90;;;;;;;19.72;46.71;100601.63;4969781;28;96902;-76
2021/09/15 11:13:18;;;;;;;1999.90;999.90;;;;;;;19.73;46.29;100592.63;4972665;28;96824;-77
2021/09/15 11:15:48;;;;;;;1999.90;999.90;;;;;;;19.68;46.59;100594.53;4989310;28;99472;-77
2021/09/15 11:18:21;;;;;;;1999.90;999.90;;;;;;;19.71;46.44;100591.75;4986621;28;97828;-77
2021/09/15 11:20:53;;;;;;;1999.90;999.90;;;;;;;19.74;46.42;100587.19;4988070;28;97007;-77
2021/09/15 11:23:25;;;;;;;1999.90;999.90;;;;;;;19.75;46.59;100593.47;4973609;28;96935;-77